createdAt,value
2016-10-29T00:00:24.803Z,1024.18
2016-10-29T00:01:24.825Z,1024.13
2016-10-29T00:02:24.844Z,1024.14
2016-10-29T00:03:24.867Z,1024.18
2016-10-29T00:04:24.886Z,1024.15
2016-10-29T00:05:24.909Z,1024.15
2016-10-29T00:06:24.926Z,1024.16
2016-10-29T00:07:24.948Z,1024.13
2016-10-29T00:08:24.969Z,1024.14
2016-10-29T00:10:25.011Z,1024.11
2016-10-29T00:11:25.031Z,1024.08
2016-10-29T00:12:25.054Z,1024.08
2016-10-29T00:13:25.075Z,1024.11
2016-10-29T00:14:25.095Z,1024.11
2016-10-29T00:15:25.116Z,1024.14
2016-10-29T00:16:25.136Z,1024.11
2016-10-29T00:17:25.158Z,1024.03
2016-10-29T00:18:25.178Z,1024.04
2016-10-29T00:19:25.200Z,1024.06
2016-10-29T00:20:25.218Z,1024.02
2016-10-29T00:21:25.241Z,1023.98
2016-10-29T00:22:25.261Z,1023.96
2016-10-29T00:23:25.281Z,1024
2016-10-29T00:24:25.302Z,1023.98
2016-10-29T00:26:25.344Z,1024.14
2016-10-29T00:27:25.363Z,1024.21
2016-10-29T00:28:25.385Z,1024.18
2016-10-29T00:29:25.405Z,1024.21
2016-10-29T00:30:25.424Z,1024.2
2016-10-29T00:31:25.445Z,1024.17
2016-10-29T00:32:25.468Z,1024.14
2016-10-29T00:33:25.486Z,1024.15
2016-10-29T00:34:25.509Z,1024.12
2016-10-29T00:35:25.528Z,1024.14
2016-10-29T00:36:25.550Z,1024.1
2016-10-29T00:37:25.569Z,1024.21
2016-10-29T00:38:25.591Z,1024.2
2016-10-29T00:39:25.614Z,1024.19
2016-10-29T00:40:25.630Z,1024.23
2016-10-29T00:42:25.673Z,1024.22
2016-10-29T00:43:25.696Z,1024.25
2016-10-29T00:44:25.713Z,1024.25
2016-10-29T00:45:25.736Z,1024.31
2016-10-29T00:46:25.756Z,1024.33
2016-10-29T00:47:25.774Z,1024.35
2016-10-29T00:48:25.798Z,1024.3
2016-10-29T00:49:25.818Z,1024.3
2016-10-29T00:50:25.839Z,1024.35
2016-10-29T00:51:25.856Z,1024.42
2016-10-29T00:52:25.879Z,1024.38
2016-10-29T00:53:25.900Z,1024.32
2016-10-29T00:54:25.919Z,1024.4
2016-10-29T00:55:25.942Z,1024.27
2016-10-29T00:57:25.983Z,1024.34
2016-10-29T00:58:26.003Z,1024.38
2016-10-29T00:59:26.024Z,1024.32
2016-10-29T01:00:26.045Z,1024.27
2016-10-29T01:01:26.066Z,1024.28
2016-10-29T01:02:26.085Z,1024.24
2016-10-29T01:03:26.106Z,1024.29
2016-10-29T01:04:26.127Z,1024.26
2016-10-29T01:05:26.147Z,1024.24
2016-10-29T01:06:26.165Z,1024.29
2016-10-29T01:07:26.191Z,1024.33
2016-10-29T01:08:26.207Z,1024.29
2016-10-29T01:09:26.226Z,1024.28
2016-10-29T01:10:26.249Z,1024.23
2016-10-29T01:11:26.270Z,1024.24
2016-10-29T01:12:26.289Z,1024.22
2016-10-29T01:13:26.309Z,1024.21
2016-10-29T01:14:26.331Z,1024.18
2016-10-29T01:15:26.352Z,1024.19
2016-10-29T01:16:26.371Z,1024.19
2016-10-29T01:17:26.392Z,1024.16
2016-10-29T01:18:26.714Z,1024.19
2016-10-29T01:19:26.432Z,1024.14
2016-10-29T01:20:26.454Z,1024.16
2016-10-29T01:21:26.475Z,1024.19
2016-10-29T01:22:26.495Z,1024.22
2016-10-29T01:23:26.516Z,1024.19
2016-10-29T01:24:26.536Z,1024.19
2016-10-29T01:25:26.554Z,1024.19
2016-10-29T01:26:26.575Z,1024.18
2016-10-29T01:27:26.597Z,1024.22
2016-10-29T01:29:26.636Z,1024.19
2016-10-29T01:30:26.657Z,1024.13
2016-10-29T01:31:26.679Z,1024.11
2016-10-29T01:32:26.697Z,1024.15
2016-10-29T01:33:26.718Z,1024.09
2016-10-29T01:34:26.740Z,1024.05
2016-10-29T01:35:26.758Z,1024.06
2016-10-29T01:36:26.780Z,1024.1
2016-10-29T01:37:26.802Z,1024.11
2016-10-29T01:38:26.820Z,1024.06
2016-10-29T01:39:26.842Z,1024.12
2016-10-29T01:40:26.863Z,1024.12
2016-10-29T01:41:26.882Z,1024.16
2016-10-29T01:42:26.903Z,1024.08
2016-10-29T01:43:26.924Z,1024.04
2016-10-29T01:45:26.965Z,1024.06
2016-10-29T01:46:26.985Z,1023.97
2016-10-29T01:47:27.004Z,1024.01
2016-10-29T01:48:27.025Z,1024.03
2016-10-29T01:49:27.046Z,1024
2016-10-29T01:50:27.067Z,1023.95
2016-10-29T01:51:27.087Z,1023.98
2016-10-29T01:52:27.106Z,1024.01
2016-10-29T01:53:27.125Z,1024.04
2016-10-29T01:54:27.146Z,1023.97
2016-10-29T01:55:27.167Z,1024.02
2016-10-29T01:56:27.187Z,1024.03
2016-10-29T01:57:27.207Z,1023.99
2016-10-29T01:58:27.230Z,1024.04
2016-10-29T01:59:27.250Z,1024.03
2016-10-29T02:01:27.290Z,1024.04
2016-10-29T02:02:27.311Z,1024.11
2016-10-29T02:03:27.332Z,1024.09
2016-10-29T02:04:27.350Z,1024.05
2016-10-29T02:05:27.372Z,1024.03
2016-10-29T02:06:27.395Z,1024.08
2016-10-29T02:07:27.413Z,1024.06
2016-10-29T02:08:27.433Z,1024.07
2016-10-29T02:09:27.450Z,1024.02
2016-10-29T02:10:27.470Z,1024.08
2016-10-29T02:11:27.491Z,1024.05
2016-10-29T02:12:27.512Z,1024.11
2016-10-29T02:13:27.532Z,1024.15
2016-10-29T02:14:27.553Z,1024.18
2016-10-29T02:15:27.574Z,1024.15
2016-10-29T02:17:27.613Z,1024.17
2016-10-29T02:18:27.634Z,1024.1
2016-10-29T02:19:27.655Z,1024.13
2016-10-29T02:20:27.674Z,1024.1
2016-10-29T02:21:27.693Z,1024.12
2016-10-29T02:22:27.714Z,1024.1
2016-10-29T02:23:27.734Z,1024.14
2016-10-29T02:24:27.757Z,1024.12
2016-10-29T02:25:27.777Z,1024.12
2016-10-29T02:26:28.045Z,1024.09
2016-10-29T02:27:27.817Z,1024.14
2016-10-29T02:28:27.838Z,1024.13
2016-10-29T02:29:27.856Z,1024.08
2016-10-29T02:30:27.877Z,1024.11
2016-10-29T02:32:27.918Z,1024.12
2016-10-29T02:33:27.939Z,1024.12
2016-10-29T02:34:27.959Z,1024.07
2016-10-29T02:35:27.980Z,1024.05
2016-10-29T02:36:27.999Z,1024.07
2016-10-29T02:37:28.018Z,1024.05
2016-10-29T02:38:28.041Z,1024.08
2016-10-29T02:39:28.061Z,1024.03
2016-10-29T02:40:28.081Z,1024.04
2016-10-29T02:41:28.098Z,1024.05
2016-10-29T02:42:28.370Z,1024.06
2016-10-29T02:43:28.139Z,1024.08
2016-10-29T02:44:28.161Z,1024.09
2016-10-29T02:45:28.182Z,1024.07
2016-10-29T02:46:28.203Z,1024.06
2016-10-29T02:47:28.223Z,1024.04
2016-10-29T02:48:28.240Z,1024.06
2016-10-29T02:49:28.263Z,1024.08
2016-10-29T02:50:28.283Z,1024.06
2016-10-29T02:51:28.301Z,1024.07
2016-10-29T02:52:28.323Z,1024.05
2016-10-29T02:53:28.343Z,1024.08
2016-10-29T02:54:28.362Z,1024.02
2016-10-29T02:55:28.384Z,1024.06
2016-10-29T02:56:28.402Z,1024.04
2016-10-29T02:57:28.424Z,1024.03
2016-10-29T02:58:28.443Z,1024
2016-10-29T02:59:28.462Z,1023.98
2016-10-29T03:00:28.484Z,1023.98
2016-10-29T03:01:28.503Z,1023.94
2016-10-29T03:02:28.522Z,1024.05
2016-10-29T03:04:28.563Z,1023.98
2016-10-29T03:05:28.583Z,1023.99
2016-10-29T03:06:28.605Z,1024.05
2016-10-29T03:07:28.625Z,1024.07
2016-10-29T03:08:28.644Z,1024.04
2016-10-29T03:09:28.667Z,1024.07
2016-10-29T03:10:28.684Z,1024.03
2016-10-29T03:11:28.707Z,1024
2016-10-29T03:12:28.726Z,1024.05
2016-10-29T03:13:28.744Z,1024.07
2016-10-29T03:14:28.764Z,1024.06
2016-10-29T03:15:28.787Z,1024.03
2016-10-29T03:16:28.807Z,1024.08
2016-10-29T03:17:28.827Z,1024.04
2016-10-29T03:18:28.845Z,1024.08
2016-10-29T03:20:28.886Z,1024.07
2016-10-29T03:21:28.907Z,1024.01
2016-10-29T03:22:28.929Z,1024
2016-10-29T03:23:28.946Z,1023.94
2016-10-29T03:24:28.968Z,1023.93
2016-10-29T03:25:28.988Z,1023.93
2016-10-29T03:26:29.009Z,1023.9
2016-10-29T03:27:29.029Z,1023.91
2016-10-29T03:28:29.046Z,1023.87
2016-10-29T03:29:29.069Z,1023.87
2016-10-29T03:30:29.089Z,1023.87
2016-10-29T03:31:29.108Z,1023.86
2016-10-29T03:32:29.130Z,1023.89
2016-10-29T03:33:29.149Z,1023.83
2016-10-29T03:34:29.168Z,1023.84
2016-10-29T03:36:29.210Z,1023.77
2016-10-29T03:37:29.230Z,1023.86
2016-10-29T03:38:29.250Z,1023.81
2016-10-29T03:39:29.270Z,1023.83
2016-10-29T03:40:29.290Z,1023.89
2016-10-29T03:41:29.308Z,1023.83
2016-10-29T03:42:29.329Z,1023.9
2016-10-29T03:43:29.348Z,1023.93
2016-10-29T03:44:29.370Z,1023.88
2016-10-29T03:45:29.391Z,1023.9
2016-10-29T03:46:29.408Z,1023.88
2016-10-29T03:47:29.428Z,1023.84
2016-10-29T03:48:29.449Z,1023.83
2016-10-29T03:49:29.469Z,1023.88
2016-10-29T03:50:29.488Z,1023.96
2016-10-29T03:52:29.531Z,1023.92
2016-10-29T03:53:29.549Z,1023.88
2016-10-29T03:54:29.568Z,1023.84
2016-10-29T03:55:29.591Z,1023.83
2016-10-29T03:56:29.609Z,1023.81
2016-10-29T03:57:29.628Z,1023.79
2016-10-29T03:58:29.649Z,1023.81
2016-10-29T03:59:29.671Z,1023.83
2016-10-29T04:00:29.689Z,1023.81
2016-10-29T04:01:29.710Z,1023.74
2016-10-29T04:02:29.729Z,1023.77
2016-10-29T04:03:29.751Z,1023.78
2016-10-29T04:04:29.771Z,1023.8
2016-10-29T04:05:29.789Z,1023.82
2016-10-29T04:07:29.832Z,1023.78
2016-10-29T04:08:29.851Z,1023.73
2016-10-29T04:09:29.869Z,1023.69
2016-10-29T04:10:29.892Z,1023.74
2016-10-29T04:11:29.912Z,1023.76
2016-10-29T04:12:29.931Z,1023.72
2016-10-29T04:13:29.949Z,1023.75
2016-10-29T04:14:29.970Z,1023.73
2016-10-29T04:15:29.988Z,1023.75
2016-10-29T04:16:30.011Z,1023.73
2016-10-29T04:17:30.032Z,1023.72
2016-10-29T04:18:30.049Z,1023.71
2016-10-29T04:19:30.068Z,1023.75
2016-10-29T04:20:30.088Z,1023.73
2016-10-29T04:21:30.111Z,1023.69
2016-10-29T04:22:30.131Z,1023.75
2016-10-29T04:23:30.148Z,1023.73
2016-10-29T04:24:30.170Z,1023.73
2016-10-29T04:25:30.188Z,1023.78
2016-10-29T04:26:30.209Z,1023.74
2016-10-29T04:27:30.230Z,1023.78
2016-10-29T04:28:30.248Z,1023.79
2016-10-29T04:29:30.269Z,1023.76
2016-10-29T04:30:30.289Z,1023.75
2016-10-29T04:31:30.309Z,1023.79
2016-10-29T04:32:30.327Z,1023.74
2016-10-29T04:33:30.347Z,1023.77
2016-10-29T04:34:30.366Z,1023.78
2016-10-29T04:35:30.388Z,1023.71
2016-10-29T04:36:30.406Z,1023.7
2016-10-29T04:37:30.425Z,1023.71
2016-10-29T04:39:30.467Z,1023.72
2016-10-29T04:40:30.488Z,1023.69
2016-10-29T04:41:30.505Z,1023.7
2016-10-29T04:42:30.525Z,1023.67
2016-10-29T04:43:30.544Z,1023.7
2016-10-29T04:44:30.565Z,1023.67
2016-10-29T04:45:30.587Z,1023.69
2016-10-29T04:46:30.606Z,1023.68
2016-10-29T04:47:30.627Z,1023.72
2016-10-29T04:48:30.645Z,1023.73
2016-10-29T04:49:30.663Z,1023.71
2016-10-29T04:50:30.685Z,1023.73
2016-10-29T04:51:30.703Z,1023.72
2016-10-29T04:52:30.722Z,1023.7
2016-10-29T04:53:30.745Z,1023.72
2016-10-29T04:55:30.782Z,1023.74
2016-10-29T04:56:30.803Z,1023.77
2016-10-29T04:57:30.821Z,1023.74
2016-10-29T04:58:30.843Z,1023.72
2016-10-29T04:59:30.863Z,1023.72
2016-10-29T05:00:30.882Z,1023.71
2016-10-29T05:01:30.902Z,1023.7
2016-10-29T05:02:30.922Z,1023.69
2016-10-29T05:03:30.942Z,1023.74
2016-10-29T05:04:30.962Z,1023.67
2016-10-29T05:05:30.980Z,1023.74
2016-10-29T05:06:31.002Z,1023.74
2016-10-29T05:07:31.022Z,1023.78
2016-10-29T05:08:31.039Z,1023.76
2016-10-29T05:09:31.062Z,1023.76
2016-10-29T05:11:31.100Z,1023.72
2016-10-29T05:12:31.121Z,1023.7
2016-10-29T05:13:31.140Z,1023.77
2016-10-29T05:14:31.158Z,1023.73
2016-10-29T05:15:31.180Z,1023.68
2016-10-29T05:16:31.199Z,1023.67
2016-10-29T05:17:31.217Z,1023.7
2016-10-29T05:18:31.239Z,1023.72
2016-10-29T05:19:31.257Z,1023.71
2016-10-29T05:20:31.281Z,1023.75
2016-10-29T05:21:31.300Z,1023.78
2016-10-29T05:22:31.316Z,1023.77
2016-10-29T05:23:31.338Z,1023.81
2016-10-29T05:24:31.356Z,1023.87
2016-10-29T05:25:31.376Z,1023.85
2016-10-29T05:27:31.416Z,1023.84
2016-10-29T05:28:31.436Z,1023.87
2016-10-29T05:29:31.457Z,1023.88
2016-10-29T05:30:31.475Z,1023.88
2016-10-29T05:31:31.497Z,1023.86
2016-10-29T05:32:31.514Z,1023.9
2016-10-29T05:33:31.536Z,1023.88
2016-10-29T05:34:31.804Z,1023.97
2016-10-29T05:35:31.977Z,1023.9
2016-10-29T05:36:31.596Z,1023.95
2016-10-29T05:37:31.616Z,1023.96
2016-10-29T05:38:31.634Z,1024.01
2016-10-29T05:39:31.656Z,1023.94
2016-10-29T05:40:31.676Z,1023.96
2016-10-29T05:42:31.714Z,1023.99
2016-10-29T05:43:31.735Z,1024
2016-10-29T05:44:31.753Z,1024.06
2016-10-29T05:45:31.773Z,1024.09
2016-10-29T05:46:31.793Z,1024.03
2016-10-29T05:47:31.812Z,1024.06
2016-10-29T05:48:31.834Z,1024.11
2016-10-29T05:49:31.854Z,1024.03
2016-10-29T05:50:31.874Z,1024.09
2016-10-29T05:51:31.894Z,1024.04
2016-10-29T05:52:31.913Z,1024.05
2016-10-29T05:53:31.934Z,1024.02
2016-10-29T05:54:31.951Z,1024
2016-10-29T05:55:31.973Z,1024.05
2016-10-29T05:56:31.994Z,1024.01
2016-10-29T05:57:32.011Z,1024.08
2016-10-29T05:58:32.032Z,1024.04
2016-10-29T05:59:32.052Z,1024.05
2016-10-29T06:00:32.070Z,1024.08
2016-10-29T06:01:32.092Z,1023.97
2016-10-29T06:02:32.110Z,1024.06
2016-10-29T06:03:32.132Z,1024.05
2016-10-29T06:04:32.150Z,1024.05
2016-10-29T06:05:32.169Z,1024.06
2016-10-29T06:06:32.189Z,1024.08
2016-10-29T06:07:32.212Z,1024.07
2016-10-29T06:08:32.230Z,1024.04
2016-10-29T06:09:32.251Z,1024.01
2016-10-29T06:10:32.269Z,1023.97
2016-10-29T06:11:32.291Z,1023.91
2016-10-29T06:12:32.308Z,1023.89
2016-10-29T06:14:32.349Z,1023.99
2016-10-29T06:15:32.369Z,1024.02
2016-10-29T06:16:32.390Z,1024.03
2016-10-29T06:17:32.408Z,1024
2016-10-29T06:18:32.430Z,1023.97
2016-10-29T06:19:32.449Z,1023.98
2016-10-29T06:20:32.468Z,1024.02
2016-10-29T06:21:32.488Z,1023.99
2016-10-29T06:22:32.509Z,1023.96
2016-10-29T06:23:32.530Z,1023.97
2016-10-29T06:24:32.548Z,1023.96
2016-10-29T06:25:32.569Z,1023.99
2016-10-29T06:26:32.589Z,1023.97
2016-10-29T06:27:32.608Z,1023.98
2016-10-29T06:28:32.629Z,1023.98
2016-10-29T06:30:32.672Z,1023.98
2016-10-29T06:31:32.692Z,1023.97
2016-10-29T06:32:32.712Z,1024.1
2016-10-29T06:33:32.732Z,1024.08
2016-10-29T06:34:32.751Z,1024.07
2016-10-29T06:35:32.770Z,1024.03
2016-10-29T06:36:32.793Z,1024.03
2016-10-29T06:37:32.812Z,1024.04
2016-10-29T06:38:32.831Z,1024.12
2016-10-29T06:39:32.853Z,1024.16
2016-10-29T06:40:32.874Z,1024.16
2016-10-29T06:41:32.893Z,1024.16
2016-10-29T06:42:32.911Z,1024.21
2016-10-29T06:43:32.935Z,1024.22
2016-10-29T06:44:32.953Z,1024.31
2016-10-29T06:46:32.996Z,1024.33
2016-10-29T06:47:33.017Z,1024.36
2016-10-29T06:48:33.037Z,1024.35
2016-10-29T06:49:33.055Z,1024.39
2016-10-29T06:50:33.077Z,1024.35
2016-10-29T06:51:33.097Z,1024.49
2016-10-29T06:52:33.117Z,1024.43
2016-10-29T06:53:33.139Z,1024.42
2016-10-29T06:54:33.158Z,1024.47
2016-10-29T06:55:33.179Z,1024.51
2016-10-29T06:56:33.200Z,1024.48
2016-10-29T06:57:33.220Z,1024.5
2016-10-29T06:58:33.242Z,1024.53
2016-10-29T06:59:33.262Z,1024.55
2016-10-29T07:00:33.282Z,1024.57
2016-10-29T07:02:33.324Z,1024.54
2016-10-29T07:03:33.343Z,1024.49
2016-10-29T07:04:33.365Z,1024.48
2016-10-29T07:05:33.383Z,1024.5
2016-10-29T07:06:33.406Z,1024.46
2016-10-29T07:07:33.424Z,1024.43
2016-10-29T07:08:33.445Z,1024.4
2016-10-29T07:09:33.467Z,1024.4
2016-10-29T07:10:33.486Z,1024.35
2016-10-29T07:11:33.506Z,1024.35
2016-10-29T07:12:33.526Z,1024.36
2016-10-29T07:13:33.550Z,1024.38
2016-10-29T07:14:33.571Z,1024.4
2016-10-29T07:15:33.590Z,1024.34
2016-10-29T07:17:33.632Z,1024.39
2016-10-29T07:18:33.651Z,1024.38
2016-10-29T07:19:33.675Z,1024.37
2016-10-29T07:20:33.696Z,1024.46
2016-10-29T07:21:33.715Z,1024.53
2016-10-29T07:22:33.735Z,1024.49
2016-10-29T07:23:33.758Z,1024.49
2016-10-29T07:24:33.778Z,1024.56
2016-10-29T07:25:33.800Z,1024.55
2016-10-29T07:26:33.821Z,1024.61
2016-10-29T07:27:33.842Z,1024.62
2016-10-29T07:28:33.861Z,1024.58
2016-10-29T07:29:33.883Z,1024.66
2016-10-29T07:30:33.902Z,1024.66
2016-10-29T07:31:33.926Z,1024.61
2016-10-29T07:32:33.945Z,1024.62
2016-10-29T07:33:33.965Z,1024.61
2016-10-29T07:34:33.987Z,1024.57
2016-10-29T07:35:34.010Z,1024.58
2016-10-29T07:36:34.028Z,1024.54
2016-10-29T07:37:34.051Z,1024.5
2016-10-29T07:38:34.073Z,1024.51
2016-10-29T07:39:34.092Z,1024.46
2016-10-29T07:40:34.113Z,1024.48
2016-10-29T07:41:34.134Z,1024.46
2016-10-29T07:42:34.155Z,1024.49
2016-10-29T07:43:34.177Z,1024.46
2016-10-29T07:44:34.197Z,1024.5
2016-10-29T07:45:34.219Z,1024.51
2016-10-29T07:46:34.241Z,1024.63
2016-10-29T07:47:34.260Z,1024.58
2016-10-29T07:49:34.305Z,1024.53
2016-10-29T07:50:34.327Z,1024.61
2016-10-29T07:51:34.345Z,1024.6
2016-10-29T07:52:34.366Z,1024.59
2016-10-29T07:53:34.389Z,1024.6
2016-10-29T07:54:34.411Z,1024.55
2016-10-29T07:55:34.430Z,1024.6
2016-10-29T07:56:34.451Z,1024.52
2016-10-29T07:57:34.472Z,1024.65
2016-10-29T07:58:34.496Z,1024.66
2016-10-29T07:59:34.517Z,1024.62
2016-10-29T08:00:34.536Z,1024.64
2016-10-29T08:01:34.557Z,1024.7
2016-10-29T08:02:34.580Z,1024.71
2016-10-29T08:03:34.600Z,1024.76
2016-10-29T08:05:34.642Z,1024.71
2016-10-29T08:06:34.665Z,1024.74
2016-10-29T08:07:34.687Z,1024.66
2016-10-29T08:08:34.710Z,1024.64
2016-10-29T08:09:34.726Z,1024.66
2016-10-29T08:10:34.750Z,1024.7
2016-10-29T08:11:34.770Z,1024.68
2016-10-29T08:12:34.791Z,1024.7
2016-10-29T08:13:34.812Z,1024.68
2016-10-29T08:14:34.836Z,1024.62
2016-10-29T08:15:34.855Z,1024.71
2016-10-29T08:16:34.876Z,1024.64
2016-10-29T08:17:34.899Z,1024.7
2016-10-29T08:18:34.921Z,1024.68
2016-10-29T08:19:34.941Z,1024.73
2016-10-29T08:21:34.983Z,1024.66
2016-10-29T08:22:35.007Z,1024.71
2016-10-29T08:23:35.027Z,1024.67
2016-10-29T08:24:35.047Z,1024.58
2016-10-29T08:25:35.073Z,1024.66
2016-10-29T08:26:35.592Z,1024.7
2016-10-29T08:27:35.112Z,1024.6
2016-10-29T08:28:35.136Z,1024.63
2016-10-29T08:29:35.158Z,1024.66
2016-10-29T08:30:35.178Z,1024.62
2016-10-29T08:31:35.198Z,1024.67
2016-10-29T08:32:35.220Z,1024.71
2016-10-29T08:33:35.242Z,1024.64
2016-10-29T08:34:35.516Z,1024.62
2016-10-29T08:35:35.285Z,1024.73
2016-10-29T08:37:35.331Z,1024.63
2016-10-29T08:38:35.353Z,1024.69
2016-10-29T08:39:35.372Z,1024.62
2016-10-29T08:40:35.396Z,1024.77
2016-10-29T08:41:35.418Z,1024.63
2016-10-29T08:42:35.439Z,1024.62
2016-10-29T08:43:35.460Z,1024.6
2016-10-29T08:44:35.482Z,1024.55
2016-10-29T08:45:35.507Z,1024.44
2016-10-29T08:46:35.527Z,1024.42
2016-10-29T08:47:35.548Z,1024.49
2016-10-29T08:48:35.571Z,1024.38
2016-10-29T08:49:35.595Z,1024.34
2016-10-29T08:50:35.615Z,1024.31
2016-10-29T08:52:35.660Z,1024.28
2016-10-29T08:53:35.681Z,1024.32
2016-10-29T08:54:35.705Z,1024.31
2016-10-29T08:55:35.729Z,1024.39
2016-10-29T08:56:35.750Z,1024.43
2016-10-29T08:57:35.773Z,1024.44
2016-10-29T08:58:35.794Z,1024.37
2016-10-29T08:59:35.818Z,1024.41
2016-10-29T09:00:35.838Z,1024.38
2016-10-29T09:01:35.863Z,1024.44
2016-10-29T09:02:35.887Z,1024.51
2016-10-29T09:03:35.909Z,1024.52
2016-10-29T09:04:35.928Z,1024.46
2016-10-29T09:05:35.953Z,1024.48
2016-10-29T09:06:35.974Z,1024.46
2016-10-29T09:07:35.998Z,1024.54
2016-10-29T09:08:36.019Z,1024.55
2016-10-29T09:09:36.043Z,1024.48
2016-10-29T09:10:36.064Z,1024.39
2016-10-29T09:11:36.088Z,1024.31
2016-10-29T09:12:36.110Z,1024.34
2016-10-29T09:13:36.134Z,1024.43
2016-10-29T09:14:36.154Z,1024.31
2016-10-29T09:15:36.176Z,1024.35
2016-10-29T09:16:36.200Z,1024.31
2016-10-29T09:17:36.224Z,1024.28
2016-10-29T09:18:36.247Z,1024.3
2016-10-29T09:19:36.268Z,1024.28
2016-10-29T09:20:36.292Z,1024.24
2016-10-29T09:21:36.312Z,1024.22
2016-10-29T09:22:36.336Z,1024.14
2016-10-29T09:24:36.382Z,1024.25
2016-10-29T09:25:36.403Z,1024.21
2016-10-29T09:26:36.426Z,1024.26
2016-10-29T09:27:36.449Z,1024.26
2016-10-29T09:28:36.474Z,1024.25
2016-10-29T09:29:36.495Z,1024.25
2016-10-29T09:30:36.517Z,1024.21
2016-10-29T09:31:36.538Z,1024.16
2016-10-29T09:32:36.561Z,1024.14
2016-10-29T09:33:36.584Z,1024.17
2016-10-29T09:34:36.605Z,1024.17
2016-10-29T09:35:36.628Z,1024.15
2016-10-29T09:36:36.652Z,1024.18
2016-10-29T09:37:36.673Z,1024.27
2016-10-29T09:38:36.698Z,1024.19
2016-10-29T09:40:36.743Z,1024.23
2016-10-29T09:41:36.765Z,1024.18
2016-10-29T09:42:36.788Z,1024.21
2016-10-29T09:43:36.811Z,1024.26
2016-10-29T09:44:36.831Z,1024.24
2016-10-29T09:45:37.054Z,1024.26
2016-10-29T09:46:36.876Z,1024.25
2016-10-29T09:47:36.899Z,1024.28
2016-10-29T09:48:36.922Z,1024.32
2016-10-29T09:49:36.944Z,1024.3
2016-10-29T09:50:36.968Z,1024.35
2016-10-29T09:51:36.991Z,1024.25
2016-10-29T09:52:37.011Z,1024.23
2016-10-29T09:53:37.034Z,1024.23
2016-10-29T09:54:37.057Z,1024.14
2016-10-29T09:56:37.102Z,1024.15
2016-10-29T09:57:37.127Z,1024.16
2016-10-29T09:58:37.148Z,1024.2
2016-10-29T09:59:37.172Z,1024.16
2016-10-29T10:00:37.193Z,1024.27
2016-10-29T10:01:37.216Z,1024.28
2016-10-29T10:02:37.241Z,1024.21
2016-10-29T10:03:37.260Z,1024.21
2016-10-29T10:04:37.286Z,1024.22
2016-10-29T10:05:37.810Z,1024.15
2016-10-29T10:06:37.329Z,1024.2
2016-10-29T10:07:37.352Z,1024.22
2016-10-29T10:08:37.377Z,1024.24
2016-10-29T10:09:37.400Z,1024.17
2016-10-29T10:10:37.422Z,1024.19
2016-10-29T10:12:37.466Z,1024.24
2016-10-29T10:13:37.491Z,1024.18
2016-10-29T10:14:37.513Z,1024.18
2016-10-29T10:15:37.536Z,1024.05
2016-10-29T10:16:37.557Z,1024.16
2016-10-29T10:17:37.580Z,1024.21
2016-10-29T10:18:37.602Z,1024.24
2016-10-29T10:19:37.626Z,1024.12
2016-10-29T10:20:37.651Z,1024.14
2016-10-29T10:21:37.671Z,1024.15
2016-10-29T10:22:37.696Z,1024.13
2016-10-29T10:23:37.719Z,1024.12
2016-10-29T10:24:37.740Z,1024.14
2016-10-29T10:25:37.766Z,1024.11
2016-10-29T10:27:37.812Z,1024.05
2016-10-29T10:28:37.832Z,1024.07
2016-10-29T10:29:37.856Z,1024.06
2016-10-29T10:30:37.880Z,1024.13
2016-10-29T10:31:37.904Z,1024.02
2016-10-29T10:32:37.926Z,1024.1
2016-10-29T10:33:37.948Z,1024.01
2016-10-29T10:34:37.973Z,1024.07
2016-10-29T10:35:37.995Z,1024
2016-10-29T10:36:38.019Z,1024
2016-10-29T10:37:38.042Z,1024
2016-10-29T10:38:38.064Z,1024.04
2016-10-29T10:39:38.085Z,1024.07
2016-10-29T10:40:38.110Z,1024.07
2016-10-29T10:41:38.133Z,1024.08
2016-10-29T10:42:38.156Z,1024.03
2016-10-29T10:43:38.181Z,1024.09
2016-10-29T10:44:38.204Z,1024.1
2016-10-29T10:45:38.227Z,1024.07
2016-10-29T10:46:38.248Z,1024.04
2016-10-29T10:47:38.273Z,1024.03
2016-10-29T10:48:38.295Z,1023.96
2016-10-29T10:49:38.318Z,1023.99
2016-10-29T10:50:38.342Z,1024.04
2016-10-29T10:51:38.366Z,1024.01
2016-10-29T10:52:38.388Z,1024.04
2016-10-29T10:53:38.411Z,1023.99
2016-10-29T10:54:38.435Z,1023.94
2016-10-29T10:55:38.456Z,1023.91
2016-10-29T10:56:38.493Z,1023.96
2016-10-29T10:57:38.504Z,1024.01
2016-10-29T10:59:38.551Z,1024.04
2016-10-29T11:00:38.575Z,1023.94
2016-10-29T11:01:38.597Z,1024.04
2016-10-29T11:02:38.618Z,1023.99
2016-10-29T11:03:38.641Z,1024
2016-10-29T11:04:38.665Z,1023.98
2016-10-29T11:05:38.689Z,1024.04
2016-10-29T11:06:38.713Z,1023.93
2016-10-29T11:07:38.735Z,1023.91
2016-10-29T11:08:38.756Z,1023.85
2016-10-29T11:09:38.781Z,1023.92
2016-10-29T11:10:38.803Z,1023.96
2016-10-29T11:11:38.826Z,1023.92
2016-10-29T11:12:38.851Z,1023.87
2016-10-29T11:13:38.872Z,1023.85
2016-10-29T11:15:38.919Z,1023.91
2016-10-29T11:16:38.941Z,1023.95
2016-10-29T11:17:38.966Z,1023.93
2016-10-29T11:18:38.988Z,1023.89
2016-10-29T11:19:39.012Z,1023.91
2016-10-29T11:20:39.033Z,1023.87
2016-10-29T11:21:39.056Z,1023.84
2016-10-29T11:22:39.079Z,1023.82
2016-10-29T11:23:39.104Z,1023.86
2016-10-29T11:24:39.127Z,1023.78
2016-10-29T11:25:39.151Z,1023.84
2016-10-29T11:26:39.172Z,1023.84
2016-10-29T11:27:39.196Z,1023.83
2016-10-29T11:28:39.217Z,1023.86
2016-10-29T11:29:39.242Z,1023.83
2016-10-29T11:31:39.288Z,1023.85
2016-10-29T11:32:39.311Z,1023.86
2016-10-29T11:33:39.332Z,1023.87
2016-10-29T11:34:39.356Z,1023.77
2016-10-29T11:35:39.379Z,1023.77
2016-10-29T11:36:39.401Z,1023.84
2016-10-29T11:37:39.425Z,1023.67
2016-10-29T11:38:39.448Z,1023.66
2016-10-29T11:39:39.468Z,1023.63
2016-10-29T11:40:39.494Z,1023.61
2016-10-29T11:41:39.513Z,1023.63
2016-10-29T11:42:39.538Z,1023.66
2016-10-29T11:43:39.562Z,1023.61
2016-10-29T11:44:39.585Z,1023.64
2016-10-29T11:45:39.605Z,1023.6
2016-10-29T11:47:39.651Z,1023.6
2016-10-29T11:48:39.675Z,1023.57
2016-10-29T11:49:39.695Z,1023.64
2016-10-29T11:50:39.720Z,1023.54
2016-10-29T11:51:39.744Z,1023.55
2016-10-29T11:52:39.766Z,1023.53
2016-10-29T11:53:39.786Z,1023.48
2016-10-29T11:54:39.809Z,1023.45
2016-10-29T11:55:39.834Z,1023.47
2016-10-29T11:56:39.856Z,1023.47
2016-10-29T11:57:39.877Z,1023.53
2016-10-29T11:58:39.903Z,1023.56
2016-10-29T11:59:39.925Z,1023.5
2016-10-29T12:00:39.948Z,1023.55
2016-10-29T12:02:39.992Z,1023.41
2016-10-29T12:03:40.016Z,1023.43
2016-10-29T12:04:40.040Z,1023.41
2016-10-29T12:05:40.061Z,1023.35
2016-10-29T12:06:40.086Z,1023.32
2016-10-29T12:07:40.105Z,1023.36
2016-10-29T12:08:40.131Z,1023.27
2016-10-29T12:09:40.152Z,1023.36
2016-10-29T12:10:40.174Z,1023.4
2016-10-29T12:11:40.199Z,1023.39
2016-10-29T12:12:40.422Z,1023.38
2016-10-29T12:13:40.243Z,1023.4
2016-10-29T12:14:40.265Z,1023.39
2016-10-29T12:15:40.290Z,1023.33
2016-10-29T12:16:40.320Z,1023.38
2016-10-29T12:17:40.334Z,1023.26
2016-10-29T12:18:40.356Z,1023.32
2016-10-29T12:19:40.379Z,1023.35
2016-10-29T12:20:40.402Z,1023.3
2016-10-29T12:21:40.424Z,1023.22
2016-10-29T12:22:40.447Z,1023.21
2016-10-29T12:23:40.472Z,1023.14
2016-10-29T12:24:40.493Z,1023.17
2016-10-29T12:25:40.515Z,1023.25
2016-10-29T12:26:40.540Z,1023.22
2016-10-29T12:27:40.563Z,1023.2
2016-10-29T12:28:40.586Z,1023.24
2016-10-29T12:29:40.606Z,1023.18
2016-10-29T12:30:40.629Z,1023.21
2016-10-29T12:31:40.653Z,1023.21
2016-10-29T12:32:40.673Z,1023.16
2016-10-29T12:34:40.719Z,1023.2
2016-10-29T12:35:40.742Z,1023.14
2016-10-29T12:36:40.766Z,1023.07
2016-10-29T12:37:40.789Z,1023.01
2016-10-29T12:38:40.812Z,1023.06
2016-10-29T12:39:40.834Z,1023.02
2016-10-29T12:40:40.856Z,1023.05
2016-10-29T12:41:40.877Z,1023.16
2016-10-29T12:42:40.902Z,1023.17
2016-10-29T12:43:40.922Z,1023.25
2016-10-29T12:44:40.944Z,1023.14
2016-10-29T12:45:40.967Z,1023.14
2016-10-29T12:46:40.992Z,1023.16
2016-10-29T12:47:41.014Z,1023.03
2016-10-29T12:48:41.287Z,1023.06